This is the latest recevied weather packets stored in our database for station/object KD9IXX-13. If no packets are shown the sender has not sent any weather packets the latest 1 day(s).
| Time | Temp. | Humidity | Pressure | Rain* | Wind** | Luminosity | Snow |
|---|---|---|---|---|---|---|---|
| 1836274676 | 21.11° C | 82% | 1016.8 hPa | 0 mm | 0.45 m/s, 220° | 0 W/m² | - |
| 1836274525 | 21.11° C | 81% | 1017.1 hPa | 0 mm | 0.45 m/s, 234° | 0 W/m² | - |
| 1836274375 | 21.11° C | 80% | 1016.8 hPa | 0 mm | 0 m/s | 0 W/m² | - |
| 1836274226 | 21.11° C | 81% | 1017.1 hPa | 0 mm | 0.89 m/s, 207° | 0 W/m² | - |
| 1836274076 | 21.11° C | 80% | 1016.8 hPa | 0 mm | 0 m/s | 0 W/m² | - |
| 1778033702 | 10.56° C | 54% | 1011.5 hPa | 0 mm | 0.89 m/s, 305° | 0 W/m² | - |
| 1778033404 | 10.56° C | 55% | 1011.2 hPa | 0 mm | 0 m/s | 0 W/m² | - |
| 1778033102 | 10.56° C | 54% | 1011.5 hPa | 0 mm | 0 m/s | 0 W/m² | - |
| 1778032802 | 10.56° C | 55% | 1011 hPa | 0 mm | 0 m/s | 0 W/m² | - |
| 1778032502 | 10.56° C | 53% | 1011.1 hPa | 0 mm | 0 m/s | 0 W/m² | - |
| 1778032202 | 10.56° C | 53% | 1011.1 hPa | 0 mm | 0.45 m/s, 301° | 0 W/m² | - |
| 1778031902 | 10.56° C | 54% | 1011 hPa | 0 mm | 0 m/s | 0 W/m² | - |
| 1778031602 | 10.56° C | 53% | 1010.9 hPa | 0 mm | 0.45 m/s, 298° | 0 W/m² | - |
| 1778031302 | 11.11° C | 52% | 1010.7 hPa | 0 mm | 0 m/s | 0 W/m² | - |
| 1778031002 | 10.56° C | 52% | 1010.8 hPa | 0 mm | 0 m/s | 0 W/m² | - |
| 1778030702 | 11.11° C | 52% | 1010.5 hPa | 0 mm | 0 m/s | 0 W/m² | - |
| 1778030402 | 11.11° C | 51% | 1010.6 hPa | 0 mm | 0.45 m/s, 297° | 0 W/m² | - |
| 1778030101 | 11.11° C | 50% | 1010.7 hPa | 0 mm | 0.89 m/s, 298° | 0 W/m² | - |
| 1778029802 | 11.11° C | 52% | 1010.6 hPa | 0 mm | 0.89 m/s, 301° | 0 W/m² | - |
| 1778029502 | 11.11° C | 53% | 1010.5 hPa | 0 mm | 0.45 m/s, 297° | 0 W/m² | - |
| 1778029202 | 11.11° C | 52% | 1010.8 hPa | 0 mm | 0 m/s | 0 W/m² | - |
| 1778028902 | 11.11° C | 51% | 1010.4 hPa | 0 mm | 0.45 m/s, 297° | 0 W/m² | - |
| 1778028602 | 11.11° C | 49% | 1010.4 hPa | 0 mm | 0.89 m/s, 303° | 0 W/m² | - |
| 1778028302 | 11.11° C | 50% | 1010.5 hPa | 0 mm | 0.45 m/s, 299° | 0 W/m² | - |
| 1778028002 | 11.11° C | 49% | 1010.5 hPa | 0 mm | 0.89 m/s, 301° | 0 W/m² | - |
* Rain latest hour (hover to see other rain measurements)
** Current wind speed in m/s (hover to see current wind gust speed)